Airfield :
LOGIN :

Register | Disclaimer

   EN    FR    IT 

 










Legend :    VFR   Marginal VFR   IFR   Intensive IFR   Very Intensive IFR
Visi :
Ceiling :
>= 8 km
>= 3000ft
5 to 8 km
1000 to 3000 ft
1500m to 5 km
500 to 1000 ft
800 to 1500m
200 to 500 ft
< 800m
< 200 ft
Symbols :   Thunderstorms  Fog  Heavy snow  Heavy precipitations  Wind > 20 kt
SIGMETs :     Misc.  Thunderstorms  Icing  Turbulence  Mountain Waves  Volcanic Ashes







- Airport Elevation : 616 ft
- IATA code : PUF
- Download approach charts


LFBP - Pau

CURRENT METAR :
  • 231330Z AUTO VRB03KT 9999 BKN007 BKN015 OVC020 13/12 Q1029 BECMG BKN020 BKN040

EXPIRED METARs :
  • 231300Z AUTO 36003KT 330V030 9999 BKN007 OVC011 13/12 Q1029 BECMG BKN020 BKN040
  • 231230Z AUTO 29005KT 9999 OVC007 13/12 Q1029 BECMG BKN020 BKN040
  • 231200Z AUTO VRB03KT 9999 OVC006 13/12 Q1029 NOSIG
  • 231130Z AUTO VRB02KT 9999 OVC006 13/12 Q1030 NOSIG
  • 231100Z AUTO VRB02KT 9999 OVC006 12/11 Q1030 TEMPO 4000 BR BECMG SCT002 BKN040

TAF TAF LFBP
Valid from the 23 at 12:00 until the 24 at 12:00 UTC


231100Z 2312/2412 15005KT 9999 BKN020 BKN040
TEMPO 2312/2314 BKN007
BECMG 2318/2320 2000 BR BKN003
TEMPO 2321/2406 0500 FG VV///
BECMG 2406/2408 NSC
No reported NOTAMs for that airfield.



MET'MAP, your aeronautical weather chart ! - Copyright ORBIFLY December 2007 - Disclaimer

ORBIFLY MET'MAP TEAM :

Programming & Development : Alexandra Zaïnal
Concept & Development : Baudouin d'Aumeries
Co-Development & Prog : Marc-Olivier Méhu
Technical & hardware support : Manuel Goepfert

Contact : metmap@orbifly.com




SOURCES & CREDITS :

   NOAA